PHLI METAR and TAF | Updated Today

PHLI METAR

Lihue Airport

Observation time: 61 min. ago

PHLI 251853Z 07009KT 10SM CLR 24/19 A3006 RMK AO2 SLP176 T02440189

Need help? Read our tutorial on how to read METARs or read the parsed version below.

Lihue Airport (PHLI) METAR

  • Weather conditions on Wed, 25 May 2022 18:53:00 +0000 (61 min. ago):
  • Present conditions: Dry
  • Clouds: Clear skies
  • Visibility: 16093 meters
  • Wind: 70 degrees at 9 knots
  • Temperature: 24 celsius
  • Dew point: 19 celsius
  • Pressure: 30.06 inHg
  • Remarks: AO2 SLP176 T02440189


Useful to know...

PHLI TAF

Lihue Airport

PHLI 251721Z 2518/2618 06010KT P6SM FEW030 SCT045
Observation time: 2:33 hr. ago
Need help? Read our tutorial on how to read TAFs or read the parsed version below.

Parsed version of TAF for Lihue Airport (PHLI)

  • From 25 May at 18:00 UTC, to day 26 of the month at 18:00 UTC
  • Clouds: A few at 914 meters; scattered at 1372 meters
  • Wind: 60 degrees at 10